Aviation Digital Data Service (ADDS)

Output produced by METARs form (1748 UTC 12 December 2017)
found at http://aviationweather.gov/adds/metars/
 
KLAS 121720Z 1218/1324 VRB05KT P6SM SKC 
     FM130100 22006KT P6SM SKC 
     FM131600 VRB05KT P6SM SKC